createdAt,value
2018-08-23T00:00:32.832Z,40.6
2018-08-23T00:10:32.076Z,40.3
2018-08-23T00:20:31.314Z,40.1
2018-08-23T00:30:30.558Z,39.1
2018-08-23T00:40:29.807Z,39.5
2018-08-23T00:50:29.044Z,39.5
2018-08-23T01:00:28.282Z,39.6
2018-08-23T01:10:27.523Z,39.6
2018-08-23T01:20:26.764Z,39.6
2018-08-23T01:30:26.005Z,39.6
2018-08-23T01:40:25.253Z,39.6
2018-08-23T01:50:24.532Z,39.7
2018-08-23T02:00:23.728Z,39.7
2018-08-23T02:10:22.967Z,39.8
2018-08-23T02:20:22.224Z,39.8
2018-08-23T02:30:21.450Z,39.8
2018-08-23T02:40:20.693Z,39.8
2018-08-23T02:50:19.928Z,39.8
2018-08-23T03:00:19.171Z,39.8
2018-08-23T03:10:18.414Z,39.9
2018-08-23T03:20:17.652Z,39.9
2018-08-23T03:30:16.897Z,39.9
2018-08-23T03:40:16.138Z,38.3
2018-08-23T03:50:15.372Z,36.1
2018-08-23T04:00:14.612Z,35.9
2018-08-23T04:10:13.854Z,35.8
2018-08-23T04:20:13.094Z,35.8
2018-08-23T04:30:12.335Z,34.6
2018-08-23T04:40:11.578Z,33
2018-08-23T04:50:10.818Z,32.5
2018-08-23T05:00:10.061Z,32.3
2018-08-23T05:10:09.304Z,31.6
2018-08-23T05:20:08.543Z,30.9
2018-08-23T05:30:07.786Z,30.8
2018-08-23T05:40:07.034Z,30.9
2018-08-23T05:50:06.268Z,31.4
2018-08-23T06:00:05.508Z,31.8
2018-08-23T06:10:04.753Z,32.2
2018-08-23T06:20:04.030Z,32.9
2018-08-23T06:30:03.237Z,33.5
2018-08-23T06:40:02.477Z,34.1
2018-08-23T06:50:01.719Z,35
2018-08-23T07:00:00.976Z,35.9
2018-08-23T07:10:00.202Z,36.8
2018-08-23T07:19:59.444Z,37.8
2018-08-23T07:29:58.829Z,38.7
2018-08-23T07:39:57.927Z,39.6
2018-08-23T07:49:57.168Z,40.5
2018-08-23T07:59:56.412Z,41.4
2018-08-23T08:09:55.652Z,42.4
2018-08-23T08:19:54.892Z,43.2
2018-08-23T08:29:54.134Z,43.8
2018-08-23T08:39:53.379Z,44.4
2018-08-23T08:49:52.621Z,44.9
2018-08-23T08:59:51.859Z,45.7
2018-08-23T09:09:51.141Z,46.4
2018-08-23T09:19:50.345Z,47.1
2018-08-23T09:29:49.584Z,47.9
2018-08-23T09:39:48.826Z,48.5
2018-08-23T09:49:48.067Z,49
2018-08-23T09:59:47.309Z,49.7
2018-08-23T10:09:46.551Z,50.4
2018-08-23T10:19:45.792Z,51.1
2018-08-23T10:29:45.035Z,51.8
2018-08-23T10:39:44.275Z,52.6
2018-08-23T10:49:43.522Z,53.3
2018-08-23T10:59:42.756Z,54
2018-08-23T11:09:42.115Z,54.8
2018-08-23T11:19:41.239Z,55.4
2018-08-23T11:29:40.591Z,56.1
2018-08-23T11:39:39.728Z,56.8
2018-08-23T11:49:38.970Z,57.5
2018-08-23T11:59:38.211Z,58.2
2018-08-23T12:09:37.450Z,58.9
2018-08-23T12:19:36.691Z,59.6
2018-08-23T12:29:35.944Z,60.2
2018-08-23T12:39:35.178Z,60.8
2018-08-23T12:49:34.447Z,61.4
2018-08-23T12:59:33.656Z,62
2018-08-23T13:09:32.909Z,62.7
2018-08-23T13:19:32.150Z,63.3
2018-08-23T13:29:31.394Z,63.9
2018-08-23T13:39:30.627Z,64.4
2018-08-23T13:49:29.874Z,65
2018-08-23T13:59:29.122Z,65.6
2018-08-23T14:09:28.360Z,66.1
2018-08-23T14:19:27.614Z,66.6
2018-08-23T14:29:26.836Z,67.1
2018-08-23T14:39:26.082Z,67.5
2018-08-23T14:49:25.358Z,67.9
2018-08-23T14:59:24.560Z,68.3
2018-08-23T15:09:23.952Z,68.6
2018-08-23T15:19:23.044Z,68.8
2018-08-23T15:29:22.286Z,68.9
2018-08-23T15:39:21.534Z,68.9
2018-08-23T15:49:20.770Z,68.9
2018-08-23T15:59:20.015Z,68.9
2018-08-23T16:09:19.261Z,67.9
2018-08-23T16:19:18.500Z,65.1
2018-08-23T16:29:17.750Z,62.9
2018-08-23T16:39:16.985Z,56.3
2018-08-23T16:49:16.232Z,53.7
2018-08-23T16:59:15.665Z,53.5
2018-08-23T17:09:14.713Z,52.2
2018-08-23T17:19:13.958Z,51.8
2018-08-23T17:29:13.212Z,51.8
2018-08-23T17:39:12.445Z,51.8
2018-08-23T17:49:11.751Z,51.7
2018-08-23T17:59:10.927Z,50
2018-08-23T18:09:10.169Z,46.3
2018-08-23T18:19:09.419Z,45.6
2018-08-23T18:29:08.659Z,45.8
2018-08-23T18:39:07.913Z,46
2018-08-23T18:49:07.150Z,43.9
2018-08-23T18:59:06.392Z,44.2
2018-08-23T19:09:05.633Z,44.5
2018-08-23T19:19:05.026Z,44.6
2018-08-23T19:29:04.122Z,44.2
2018-08-23T19:39:03.364Z,44.5
2018-08-23T19:49:02.607Z,44.6
2018-08-23T19:59:01.851Z,44.8
2018-08-23T20:09:01.096Z,44.8
2018-08-23T20:19:00.333Z,44.9
2018-08-23T20:28:59.577Z,45
2018-08-23T20:38:58.952Z,45.1
2018-08-23T20:48:58.063Z,45.1
2018-08-23T20:58:57.304Z,45.2
2018-08-23T21:08:56.550Z,45.3
2018-08-23T21:18:55.792Z,45.3
2018-08-23T21:28:55.031Z,45.3
2018-08-23T21:38:54.272Z,45.4
2018-08-23T21:48:53.524Z,45.4
2018-08-23T21:58:52.762Z,45.4
2018-08-23T22:08:52.050Z,45.5
2018-08-23T22:18:51.254Z,45.6
2018-08-23T22:28:50.483Z,45.4
2018-08-23T22:38:49.727Z,45.5
2018-08-23T22:48:48.972Z,45.5
2018-08-23T22:58:48.265Z,45.6
2018-08-23T23:08:47.450Z,45.6
2018-08-23T23:18:46.692Z,45.6
2018-08-23T23:28:45.931Z,45.6
2018-08-23T23:38:45.176Z,45.7
2018-08-23T23:48:44.422Z,45.8
2018-08-23T23:58:43.659Z,45.8
